Time;durP1;ratioP1;P1;durP2;ratioP2;P2;SDS_P1;SDS_P2;PMS_P1;PMS_P2;Temp;Humidity;BMP_temperature;BMP_pressure;BME280_temperature;BME280_humidity;BME280_pressure;Samples;Min_cycle;Max_cycle;Signal;HPM_P1;HPM_P2
2024/04/07 00:01:12;;;;;;;6.40;4.83;;;14.10;99.90;;;;;;5022684;28;20214;-58
2024/04/07 00:03:38;;;;;;;6.03;5.60;;;14.00;99.90;;;;;;5019384;28;20306;-58
2024/04/07 00:06:05;;;;;;;5.87;5.30;;;14.00;99.90;;;;;;5021294;28;20270;-58
2024/04/07 00:08:31;;;;;;;5.87;4.07;;;13.90;99.90;;;;;;5016916;28;20198;-58
2024/04/07 00:11:03;;;;;;;4.97;4.40;;;;;;;;;;5032298;28;20620;-58
2024/04/07 00:13:29;;;;;;;5.53;4.13;;;14.00;99.90;;;;;;5026983;28;20250;-58
2024/04/07 00:15:58;;;;;;;4.00;3.13;;;;;;;;;;5020401;28;20195;-58
2024/04/07 00:18:24;;;;;;;4.00;3.70;;;;;;;;;;5011664;28;20687;-58
2024/04/07 00:21:01;;;;;;;4.07;3.77;;;;;;;;;;5012426;28;20199;-58
2024/04/07 00:23:27;;;;;;;6.93;4.83;;;;;;;;;;5019655;28;20225;-58
2024/04/07 00:25:54;;;;;;;4.53;3.87;;;;;;;;;;5020238;28;20198;-58
2024/04/07 00:28:20;;;;;;;4.20;3.80;;;;;;;;;;5019774;28;20249;-58
2024/04/07 00:30:48;;;;;;;5.10;4.63;;;;;;;;;;5031943;28;20293;-59
2024/04/07 00:33:15;;;;;;;4.10;2.97;;;;;;;;;;5031627;28;20317;-58
2024/04/07 00:35:43;;;;;;;4.20;3.57;;;;;;;;;;5024807;28;20199;-58
2024/04/07 00:38:09;;;;;;;6.07;3.30;;;;;;;;;;5019164;28;20203;-58
2024/04/07 00:40:37;;;;;;;3.53;3.27;;;;;;;;;;5012002;28;20200;-58
2024/04/07 00:43:06;;;;;;;3.33;3.00;;;;;;;;;;5012064;28;20203;-58
2024/04/07 00:45:33;;;;;;;2.20;2.00;;;;;;;;;;5011868;28;20574;-58
2024/04/07 00:48:00;;;;;;;3.10;2.80;;;;;;;;;;5018586;28;20198;-58
2024/04/07 00:50:29;;;;;;;4.83;1.73;;;;;;;;;;5023372;28;20202;-58
2024/04/07 00:52:56;;;;;;;1.57;0.90;;;;;;;;;;5031372;28;20709;-58
2024/04/07 00:55:23;;;;;;;9.53;0.83;;;;;;;;;;5031483;28;20623;-58
2024/04/07 00:57:50;;;;;;;1.60;0.40;;;;;;;;;;5027172;28;20203;-58
2024/04/07 01:00:17;;;;;;;3.70;0.70;;;;;;;;;;5016617;28;20203;-58
2024/04/07 01:02:43;;;;;;;6.63;0.40;;;;;;;;;;5019520;28;20195;-58
2024/04/07 01:05:10;;;;;;;4.43;0.40;;;;;;;;;;5011686;28;20223;-58
2024/04/07 01:07:38;;;;;;;0.77;0.23;;;;;;;;;;5010786;28;20599;-59
2024/04/07 01:10:08;;;;;;;0.60;0.30;;;;;;;;;;5011392;28;20202;-59
2024/04/07 01:12:34;;;;;;;0.60;0.20;;;;;;;;;;5012443;28;21454;-59
2024/04/07 01:15:01;;;;;;;3.87;0.40;;;;;;;;;;5022582;28;20307;-59
2024/04/07 01:17:28;;;;;;;3.83;0.33;;;;;;;;;;5011883;28;20253;-59
2024/04/07 01:19:55;;;;;;;2.80;0.30;;;;;;;;;;5026513;28;20700;-59
2024/04/07 01:22:21;;;;;;;2.17;0.33;;;;;;;;;;5015382;28;20203;-59
2024/04/07 01:24:50;;;;;;;2.90;0.40;;;;;;;;;;5015071;28;20219;-59
2024/04/07 01:27:16;;;;;;;1.43;0.57;;;;;;;;;;5021433;28;20268;-59
2024/04/07 01:29:43;;;;;;;0.93;0.80;;;;;;;;;;5010711;28;20198;-59
2024/04/07 01:32:10;;;;;;;1.03;0.27;;;;;;;;;;5011205;28;20231;-59
2024/04/07 01:34:37;;;;;;;0.33;0.23;;;;;;;;;;5011192;28;20858;-59
2024/04/07 01:37:03;;;;;;;1.03;0.93;;;;;;;;;;5011127;28;20203;-59
2024/04/07 01:39:30;;;;;;;0.40;0.33;;;;;;;;;;5017703;28;20721;-59
2024/04/07 01:41:58;;;;;;;0.30;0.30;;;;;;;;;;5011266;28;20253;-59
2024/04/07 01:44:25;;;;;;;0.30;0.30;;;;;;;;;;5010929;28;20227;-59
2024/04/07 01:46:51;;;;;;;0.40;0.40;;;;;;;;;;5010794;28;20243;-59
2024/04/07 01:49:19;;;;;;;0.20;0.20;;;;;;;;;;5024062;28;20191;-59
2024/04/07 01:51:45;;;;;;;3.13;0.40;;;;;;;;;;5021098;28;20222;-59
2024/04/07 01:54:12;;;;;;;3.20;0.30;;;;;;;;;;5013483;28;20612;-59
2024/04/07 01:56:38;;;;;;;0.73;0.37;;;;;;;;;;5014150;28;20195;-59
2024/04/07 01:59:07;;;;;;;1.20;0.43;;;;;;;;;;5010008;28;20210;-59
2024/04/07 02:01:34;;;;;;;0.50;0.23;;;;;;;;;;5011243;28;20203;-59
2024/04/07 02:04:01;;;;;;;0.23;0.23;;;;;;;;;;5014520;28;20249;-59
2024/04/07 02:06:28;;;;;;;0.50;0.40;;;;;;;;;;5021509;28;20554;-59
2024/04/07 02:08:55;;;;;;;0.93;0.30;;;;;;;;;;5029709;28;20195;-59
2024/04/07 02:11:21;;;;;;;0.60;0.60;;;;;;;;;;5030506;28;20206;-59
2024/04/07 02:13:48;;;;;;;0.30;0.30;;;;;;;;;;5030501;28;20253;-59
2024/04/07 02:16:16;;;;;;;0.30;0.30;;;;;;;;;;5028262;28;20198;-59
2024/04/07 02:18:43;;;;;;;2.73;0.40;;;;;;;;;;5017652;28;20679;-59
2024/04/07 02:21:09;;;;;;;1.37;0.47;;;;;;;;;;5010710;28;20281;-59
2024/04/07 02:23:36;;;;;;;4.67;0.53;;;;;;;;;;5019950;28;20226;-59
2024/04/07 02:26:07;;;;;;;0.40;0.40;;;;;;;;;;5022004;28;20662;-59
2024/04/07 02:28:34;;;;;;;0.40;0.40;;;;;;;;;;5023728;28;20226;-59
2024/04/07 02:31:00;;;;;;;0.63;0.50;;;;;;;;;;5018390;28;20249;-59
2024/04/07 02:33:30;;;;;;;0.50;0.50;;;;;;;;;;5010463;28;20254;-60
2024/04/07 02:35:57;;;;;;;0.60;0.40;;;;;;;;;;5010828;28;20280;-59
2024/04/07 02:38:24;;;;;;;0.73;0.30;;;;;;;;;;5027355;28;20202;-58
2024/04/07 02:40:50;;;;;;;1.97;0.30;;;;;;;;;;5027880;28;20256;-59
2024/04/07 02:43:18;;;;;;;0.30;0.30;;;;;;;;;;5020056;28;20206;-59
2024/04/07 02:48:31;;;;;;;2.10;0.40;;;;;;;;;;5028143;28;20581;-59
2024/04/07 02:50:58;;;;;;;1.30;0.67;;;;;;;;;;5030059;28;20276;-59
2024/04/07 02:53:26;;;;;;;0.43;0.40;;;;;;;;;;5026119;28;20281;-58
2024/04/07 02:55:52;;;;;;;1.37;0.50;;;;;;;;;;5018163;28;20253;-59
2024/04/07 02:58:19;;;;;;;1.50;0.50;;;;;;;;;;5011984;28;20195;-59
2024/04/07 03:00:45;;;;;;;1.90;0.30;;;;;;;;;;5018716;28;20225;-58
2024/04/07 03:03:13;;;;;;;0.40;0.30;;;;;;;;;;5024761;28;20544;-59
2024/04/07 03:05:40;;;;;;;0.27;0.27;;;;;;;;;;5014159;28;20203;-58
2024/04/07 03:08:08;;;;;;;0.20;0.20;;;;;;;;;;5013214;28;20770;-59
2024/04/07 03:10:34;;;;;;;0.40;0.40;;;;;;;;;;5016655;28;20674;-59
2024/04/07 03:13:01;;;;;;;0.97;0.40;;;;;;;;;;5025374;28;20733;-58
2024/04/07 03:15:31;;;;;;;0.53;0.30;;;;;;;;;;5014511;28;20237;-59
2024/04/07 03:17:58;;;;;;;0.30;0.30;;;;;;;;;;5025413;28;20221;-58
2024/04/07 03:20:24;;;;;;;0.43;0.37;;;;;;;;;;5033307;28;20316;-58
2024/04/07 03:22:56;;;;;;;0.43;0.30;;;;;;;;;;5031725;28;20617;-58
2024/04/07 03:25:23;;;;;;;0.43;0.20;;;;;;;;;;5021579;28;20286;-58
2024/04/07 03:27:50;;;;;;;2.30;0.20;;;;;;;;;;5018282;28;20687;-59
2024/04/07 03:30:16;;;;;;;0.53;0.30;;;;;;;;;;5011413;28;20236;-59
2024/04/07 03:32:44;;;;;;;0.67;0.30;;;;;;;;;;5013407;28;20230;-59
2024/04/07 03:35:10;;;;;;;3.73;0.37;;;;;;;;;;5013429;28;20657;-59
2024/04/07 03:37:37;;;;;;;0.30;0.30;;;;;;;;;;5022925;28;20206;-58
2024/04/07 03:40:05;;;;;;;1.70;0.37;;;;;;;;;;5013059;28;20199;-58
2024/04/07 03:42:32;;;;;;;0.20;0.20;;;;;;;;;;5013197;28;20206;-59
2024/04/07 03:45:00;;;;;;;0.40;0.30;;;;;;;;;;5013158;28;20665;-59
2024/04/07 03:47:27;;;;;;;0.30;0.30;;;;;;;;;;5016349;28;20268;-58
2024/04/07 03:49:54;;;;;;;0.20;0.20;;;;;;;;;;5025731;28;20207;-59
2024/04/07 03:52:21;;;;;;;0.87;0.20;;;;;;;;;;5024110;28;20288;-59
2024/04/07 03:54:48;;;;;;;0.30;0.30;;;;;;;;;;5032434;28;20697;-59
2024/04/07 03:57:17;;;;;;;0.30;0.23;;;;;;;;;;5026749;28;20191;-59
2024/04/07 03:59:43;;;;;;;0.20;0.20;;;;;;;;;;5011979;28;20208;-58
2024/04/07 04:02:10;;;;;;;0.37;0.33;;;;;;;;;;5016181;28;20199;-59
2024/04/07 04:04:36;;;;;;;2.00;0.30;;;;;;;;;;5020258;28;20572;-58
2024/04/07 04:07:04;;;;;;;0.50;0.50;;;;;;;;;;5016594;28;20670;-59
2024/04/07 04:09:30;;;;;;;1.93;0.30;;;;;;;;;;5031515;28;20210;-59
2024/04/07 04:11:57;;;;;;;0.60;0.30;;;;;;;;;;5013155;28;20257;-58
2024/04/07 04:14:25;;;;;;;1.37;0.40;;;;;;;;;;5044404;22;20300;-63
2024/04/07 04:16:52;;;;;;;1.07;0.37;;;;;;;;;;5030879;28;20238;-63
2024/04/07 04:19:18;;;;;;;0.20;0.20;;;;;;;;;;5031475;28;20248;-63
2024/04/07 04:21:45;;;;;;;0.20;0.20;;;;;;;;;;5026612;28;20549;-63
2024/04/07 04:24:12;;;;;;;0.53;0.27;;;;;;;;;;5019099;28;20714;-63
2024/04/07 04:26:39;;;;;;;1.17;0.30;;;;;;;;;;5024377;28;20281;-63
2024/04/07 04:29:06;;;;;;;0.60;0.20;;;;;;;;;;5020876;28;20217;-63
2024/04/07 04:31:35;;;;;;;0.10;0.10;;;;;;;;;;5026080;28;20574;-63
2024/04/07 04:34:02;;;;;;;0.23;0.23;;;;;;;;;;5024055;28;20223;-63
2024/04/07 04:36:29;;;;;;;2.20;0.20;;;;;;;;;;5025039;28;20207;-63
2024/04/07 04:38:56;;;;;;;0.50;0.30;;;;;;;;;;5017511;28;20210;-63
2024/04/07 04:41:23;;;;;;;0.20;0.20;;;;;;;;;;5025036;28;20206;-63
2024/04/07 04:43:49;;;;;;;0.40;0.30;;;;;;;;;;5022532;28;20250;-63
2024/04/07 04:46:16;;;;;;;0.43;0.20;;;;;;;;;;5023576;28;20717;-61
2024/04/07 04:48:45;;;;;;;0.40;0.40;;;;;;;;;;5024675;28;20205;-63
2024/04/07 04:51:12;;;;;;;0.50;0.50;;;;;;;;;;5026936;28;20206;-63
2024/04/07 04:53:38;;;;;;;0.33;0.30;;;;;;;;;;5020456;28;20660;-63
2024/04/07 04:56:06;;;;;;;0.27;0.27;;;;;;;;;;5021325;28;20222;-63
2024/04/07 04:58:33;;;;;;;1.43;0.30;;;;;;;;;;5019320;28;20199;-63
2024/04/07 05:01:10;;;;;;;0.30;0.30;;;;;;;;;;5025550;28;20678;-63
2024/04/07 05:03:37;;;;;;;1.23;0.33;;;;;;;;;;5019707;28;20203;-63
2024/04/07 05:06:10;;;;;;;0.33;0.33;;;;;;;;;;5019433;28;20223;-63
2024/04/07 05:08:36;;;;;;;0.30;0.30;;;;;;;;;;5022346;28;20211;-63
2024/04/07 05:11:04;;;;;;;0.27;0.27;;;;;;;;;;5024763;28;20252;-63
2024/04/07 05:13:30;;;;;;;1.23;0.30;;;;;;;;;;5015387;28;20226;-63
2024/04/07 05:15:57;;;;;;;0.67;0.20;;;;;;;;;;5021858;28;20231;-64
2024/04/07 05:18:24;;;;;;;0.93;0.40;;;;;;;;;;5021599;28;20203;-63
2024/04/07 05:20:51;;;;;;;5.43;0.80;;;;;;;;;;5024179;28;20220;-63
2024/04/07 05:23:19;;;;;;;0.27;0.27;;;;;;;;;;5023709;28;20286;-63
2024/04/07 05:25:46;;;;;;;0.67;0.47;;;;;;;;;;5020421;28;20231;-63
2024/04/07 05:28:12;;;;;;;1.50;0.70;;;;;;;;;;5021118;28;20743;-63
2024/04/07 05:30:40;;;;;;;1.27;0.70;;;;;;;;;;5022372;28;20225;-63
2024/04/07 05:33:06;;;;;;;1.23;0.70;;;;;;;;;;5016881;28;20226;-63
2024/04/07 05:35:34;;;;;;;3.30;0.67;;;;;;;;;;5026788;28;20218;-63
2024/04/07 05:38:02;;;;;;;0.77;0.77;;;;;;;;;;5017989;28;20203;-63
2024/04/07 05:40:29;;;;;;;1.67;0.77;;;;;;;;;;5020501;28;20199;-63
2024/04/07 05:43:00;;;;;;;1.50;1.30;;;;;;;;;;5014205;28;20257;-63
2024/04/07 05:45:26;;;;;;;1.00;1.00;;;;;;;;;;5017653;28;20225;-63
2024/04/07 05:47:57;;;;;;;1.67;1.13;;;;;;;;;;5018337;28;20218;-63
2024/04/07 05:50:25;;;;;;;5.83;1.43;;;;;;;;;;5015008;28;20270;-63
2024/04/07 05:52:54;;;;;;;2.47;1.00;;;;;;;;;;5018950;28;20242;-63
2024/04/07 05:55:21;;;;;;;1.50;1.40;;;;;;;;;;5017791;28;20246;-64
2024/04/07 05:57:49;;;;;;;3.03;1.63;;;;;;;;;;5023665;28;20203;-63
2024/04/07 06:00:16;;;;;;;1.90;1.63;;;;;;;;;;5025542;28;20206;-63
2024/04/07 06:02:43;;;;;;;4.10;1.57;;;;;;;;;;5025010;28;20209;-63
2024/04/07 06:05:09;;;;;;;2.27;1.80;;;;;;;;;;5021700;28;20234;-63
2024/04/07 06:07:37;;;;;;;3.73;2.77;;;;;;;;;;5018778;28;20362;-63
2024/04/07 06:10:04;;;;;;;7.47;3.20;;;;;;;;;;5016438;28;20199;-63
2024/04/07 06:12:31;;;;;;;2.20;2.00;;;;;;;;;;5019073;28;20218;-63
2024/04/07 06:14:59;;;;;;;4.20;2.77;;;;;;;;;;5022658;28;20276;-63
2024/04/07 06:17:26;;;;;;;2.43;2.23;;;;;;;;;;5013969;28;20334;-63
2024/04/07 06:19:53;;;;;;;2.90;2.63;;;;;;;;;;5012942;28;20195;-64
2024/04/07 06:22:21;;;;;;;5.03;2.63;;;;;;;;;;5019450;28;20198;-64
2024/04/07 06:24:48;;;;;;;2.30;2.10;;;;;;;;;;5015598;28;20222;-63
2024/04/07 06:27:18;;;;;;;1.73;1.67;;;;;;;;;;5013997;28;20195;-61
2024/04/07 06:29:44;;;;;;;3.13;2.30;;;;;;;;;;5021534;28;20230;-63
2024/04/07 06:32:13;;;;;;;2.30;2.20;;;;;;;;;;5021738;28;20214;-64
2024/04/07 06:34:39;;;;;;;2.60;1.93;;;;;;;;;;5016338;28;20226;-63
2024/04/07 06:37:07;;;;;;;5.57;2.17;;;;;;;;;;5016169;28;20280;-63
2024/04/07 06:39:33;;;;;;;2.03;1.83;;;;;;;;;;5018881;28;20570;-64
2024/04/07 06:42:01;;;;;;;1.60;1.60;;;;;;;;;;5028992;28;20195;-64
2024/04/07 06:44:27;;;;;;;1.97;1.87;;;;;;;;;;5030533;28;20218;-64
2024/04/07 06:46:54;;;;;;;4.37;2.53;;;;;;;;;;5023591;28;20233;-64
2024/04/07 06:49:22;;;;;;;6.77;2.73;;;;;;;;;;5032807;28;20206;-64
2024/04/07 06:51:49;;;;;;;2.23;2.00;;;;;;;;;;5033941;28;20206;-64
2024/04/07 06:54:16;;;;;;;1.80;1.43;;;;;;;;;;5033799;28;20230;-64
2024/04/07 06:56:43;;;;;;;4.70;1.67;;;;;;;;;;5032796;28;20209;-64
2024/04/07 06:59:10;;;;;;;2.73;1.37;;;;;;;;;;5025021;28;20211;-64
2024/04/07 07:01:37;;;;;;;1.40;1.30;;;;;;;;;;5033114;28;20684;-64
2024/04/07 07:04:04;;;;;;;1.77;1.67;;;;;;;;;;5026877;28;20196;-64
2024/04/07 07:06:32;;;;;;;2.50;1.20;;;;;;;;;;5030283;28;20289;-65
2024/04/07 07:08:59;;;;;;;4.57;1.30;;;;;;;;;;5027851;28;20272;-64
2024/04/07 07:11:26;;;;;;;2.00;1.20;;;;;;;;;;5023574;28;20199;-64
2024/04/07 07:13:53;;;;;;;1.90;0.90;;;;;;;;;;5024472;28;20301;-64
2024/04/07 07:16:21;;;;;;;1.90;1.30;;;;;;;;;;5025320;28;20289;-64
2024/04/07 07:18:47;;;;;;;2.53;1.10;;;;;;;;;;5032918;28;20206;-64
2024/04/07 07:21:14;;;;;;;1.20;1.05;;;;;;;;;;5031290;28;20285;-64
2024/04/07 07:23:42;;;;;;;1.65;1.00;;;;;;;;;;5025446;28;20194;-64
2024/04/07 07:26:10;;;;;;;3.00;1.10;;;;;;;;;;5032804;28;20276;-64
2024/04/07 07:28:36;;;;;;;1.20;0.80;;;;;;;;;;5021091;28;20241;-64
2024/04/07 07:31:04;;;;;;;2.45;0.80;;;;;;;;;;5032929;28;20203;-65
2024/04/07 07:33:30;;;;;;;1.95;0.65;;;;;;;;;;5031617;28;20268;-64
2024/04/07 07:35:57;;;;;;;0.50;0.50;;;;;;;;;;5030930;28;20225;-64
2024/04/07 07:38:24;;;;;;;0.93;0.65;;;;;;;;;;5027553;28;20334;-65
2024/04/07 07:40:52;;;;;;;0.68;0.50;;;;;;;;;;5026582;28;20286;-64
2024/04/07 07:43:19;;;;;;;0.88;0.50;;;;;;;;;;5032536;28;20696;-64
2024/04/07 07:45:47;;;;;;;0.80;0.32;;;;;;;;;;5021020;28;20741;-64
2024/04/07 07:48:14;;;;;;;0.75;0.50;;;;;;;;;;5020866;28;20670;-64
2024/04/07 07:50:41;;;;;;;0.50;0.50;;;;;;;;;;5032837;28;20190;-64
2024/04/07 07:53:08;;;;;;;1.23;0.50;;;;;;;;;;5025163;28;20223;-64
2024/04/07 07:55:35;;;;;;;1.35;0.68;;;;;;;;;;5030195;28;20567;-64
2024/04/07 07:58:03;;;;;;;0.40;0.40;;;;;;;;;;5028243;28;20209;-64
2024/04/07 08:00:31;;;;;;;0.65;0.65;;;;;;;;;;5030249;28;20205;-63
2024/04/07 08:03:00;;;;;;;0.30;0.30;;;;;;;;;;5027928;28;20195;-64
2024/04/07 08:05:27;;;;;;;0.40;0.40;;;26.50;90.00;;;;;;5024567;28;20234;-64
2024/04/07 08:07:58;;;;;;;2.53;0.55;;;26.80;88.30;;;;;;5032739;28;20199;-64
2024/04/07 08:10:26;;;;;;;0.40;0.40;;;27.00;89.60;;;;;;5022547;28;20207;-64
2024/04/07 08:12:52;;;;;;;0.77;0.70;;;27.00;85.80;;;;;;5028084;28;20391;-64
2024/04/07 08:15:21;;;;;;;0.65;0.32;;;27.60;88.90;;;;;;5013156;28;20750;-64
2024/04/07 08:17:48;;;;;;;2.42;0.30;;;28.20;89.90;;;;;;5012660;28;20203;-64
2024/04/07 08:20:15;;;;;;;0.50;0.30;;;28.50;87.80;;;;;;5022192;28;20293;-64
2024/04/07 08:22:42;;;;;;;0.40;0.40;;;28.50;87.00;;;;;;5033425;28;20202;-64
2024/04/07 08:25:09;;;;;;;2.90;0.50;;;28.20;88.50;;;;;;5032171;28;20760;-64
2024/04/07 08:27:37;;;;;;;1.50;0.43;;;27.20;85.60;;;;;;5029090;28;20199;-64
2024/04/07 08:30:05;;;;;;;0.60;0.47;;;27.20;86.90;;;;;;5019785;28;20199;-64
2024/04/07 08:32:33;;;;;;;1.50;0.40;;;27.30;88.20;;;;;;5022023;28;20643;-64
2024/04/07 08:34:59;;;;;;;0.95;0.50;;;27.30;89.10;;;;;;5013034;28;20269;-64
2024/04/07 08:37:26;;;;;;;0.75;0.50;;;27.20;90.20;;;;;;5030556;28;20194;-64
2024/04/07 08:39:53;;;;;;;0.20;0.20;;;27.50;89.80;;;;;;5026400;28;20684;-65
2024/04/07 08:42:21;;;;;;;0.50;0.40;;;28.00;87.60;;;;;;5028119;28;20221;-65
2024/04/07 08:44:49;;;;;;;2.75;0.93;;;28.60;88.60;;;;;;5029201;28;20240;-65
2024/04/07 08:47:17;;;;;;;4.35;0.65;;;29.20;87.00;;;;;;5031915;28;20784;-64
2024/04/07 08:49:48;;;;;;;2.85;0.93;;;29.90;89.20;;;;;;5031824;28;20191;-64
2024/04/07 08:52:15;;;;;;;2.60;0.98;;;30.50;86.30;;;;;;5032571;28;20294;-64
2024/04/07 08:54:43;;;;;;;1.20;0.35;;;31.20;85.70;;;;;;5026012;28;20254;-64
2024/04/07 08:57:09;;;;;;;0.52;0.40;;;31.50;86.40;;;;;;5030413;28;20234;-64
2024/04/07 08:59:39;;;;;;;0.65;0.30;;;31.40;87.20;;;;;;5030606;28;20205;-64
2024/04/07 09:02:06;;;;;;;1.10;0.68;;;31.10;82.90;;;;;;5032632;28;20294;-64
2024/04/07 09:04:33;;;;;;;0.50;0.50;;;31.00;87.40;;;;;;5025957;28;20301;-64
2024/04/07 09:07:03;;;;;;;0.70;0.70;;;31.00;82.60;;;;;;5024677;28;20293;-64
2024/04/07 09:09:30;;;;;;;0.50;0.50;;;31.10;84.40;;;;;;5026573;28;20829;-65
2024/04/07 09:11:56;;;;;;;0.35;0.35;;;31.00;83.40;;;;;;5043440;28;20732;-64
2024/04/07 09:14:25;;;;;;;3.20;0.60;;;31.00;83.80;;;;;;5028768;28;20233;-64
2024/04/07 09:17:01;;;;;;;0.68;0.60;;;30.80;90.20;;;;;;5021068;28;20453;-69
2024/04/07 09:19:32;;;;;;;0.40;0.40;;;30.60;90.50;;;;;;5023737;28;20206;-67
2024/04/07 09:22:00;;;;;;;0.57;0.57;;;30.90;88.70;;;;;;5028032;28;20223;-67
2024/04/07 09:24:27;;;;;;;3.22;0.95;;;;;;;;;;5026798;28;20571;-67
2024/04/07 09:26:55;;;;;;;1.40;0.60;;;;;;;;;;5018529;28;20217;-67
2024/04/07 09:29:23;;;;;;;1.60;0.80;;;;;;;;;;5022935;28;20203;-67
2024/04/07 09:31:50;;;;;;;0.60;0.50;;;;;;;;;;5018985;28;20610;-66
2024/04/07 09:34:17;;;;;;;0.85;0.65;;;;;;;;;;5027768;28;20829;-68
2024/04/07 09:36:43;;;;;;;0.40;0.40;;;;;;;;;;5023769;28;20199;-68
2024/04/07 09:39:13;;;;;;;0.50;0.50;;;;;;;;;;5021371;28;20202;-67
2024/04/07 09:41:41;;;;;;;0.40;0.32;;;;;;;;;;5021284;28;20245;-70
2024/04/07 09:44:10;;;;;;;1.70;0.75;;;;;;;;;;5023879;28;20199;-69
2024/04/07 09:46:38;;;;;;;2.15;0.57;;;;;;;;;;5024286;28;20771;-69
2024/04/07 09:49:08;;;;;;;0.25;0.25;;;;;;;;;;5026188;28;20733;-67
2024/04/07 09:51:39;;;;;;;0.82;0.40;;;;;;;;;;5016559;28;21378;-68
2024/04/07 09:54:13;;;;;;;0.60;0.40;;;;;;;;;;5016776;28;20230;-69
2024/04/07 09:56:42;;;;;;;0.30;0.30;;;;;;;;;;5016591;28;20207;-69
2024/04/07 09:59:10;;;;;;;1.90;0.30;;;;;;;;;;5025044;28;20198;-73
2024/04/07 10:01:36;;;;;;;1.55;0.40;;;;;;;;;;5020219;28;20194;-70
2024/04/07 10:04:04;;;;;;;1.80;0.40;;;;;;;;;;5017103;28;20223;-64
2024/04/07 10:06:31;;;;;;;3.20;0.47;;;;;;;;;;5018029;28;20211;-63
2024/04/07 10:08:59;;;;;;;0.40;0.40;;;;;;;;;;5026150;28;20218;-65
2024/04/07 10:11:25;;;;;;;1.98;0.73;;;;;;;;;;5024625;28;20199;-63
2024/04/07 10:13:54;;;;;;;2.88;0.70;;;;;;;;;;5022536;28;20219;-64
2024/04/07 10:16:21;;;;;;;1.33;0.60;;;;;;;;;;5027756;28;20666;-64
2024/04/07 10:18:48;;;;;;;0.68;0.40;;;;;;;;;;5014987;28;20210;-64
2024/04/07 10:21:16;;;;;;;0.50;0.50;;;;;;;;;;5023300;28;20206;-64
2024/04/07 10:23:44;;;;;;;0.50;0.50;;;;;;;;;;5018257;28;20237;-63
2024/04/07 10:26:10;;;;;;;1.95;0.70;;;;;;;;;;5019355;28;20230;-65
2024/04/07 10:28:47;;;;;;;1.25;0.65;;;;;;;;;;5021444;28;20225;-62
2024/04/07 10:31:21;;;;;;;0.85;0.45;;;;;;;;;;5023011;28;20207;-62
2024/04/07 10:33:49;;;;;;;0.90;0.40;;;;;;;;;;5021408;28;20316;-62
2024/04/07 10:36:17;;;;;;;1.33;0.50;;;;;;;;;;5012834;28;20389;-64
2024/04/07 10:38:45;;;;;;;2.97;0.93;;;;;;;;;;5013427;28;20199;-64
2024/04/07 10:41:16;;;;;;;2.75;1.17;;;;;;;;;;5021476;28;20268;-63
2024/04/07 10:43:44;;;;;;;2.45;0.77;;;;;;;;;;5017626;28;20659;-63
2024/04/07 10:46:10;;;;;;;9.55;7.32;;;;;;;;;;5017314;28;20670;-64
2024/04/07 10:48:39;;;;;;;3.58;1.30;;;;;;;;;;5017332;28;20213;-65
2024/04/07 10:51:06;;;;;;;2.83;1.40;;;;;;;;;;5012906;28;20207;-62
2024/04/07 10:53:59;;;;;;;2.05;0.93;;;;;;;;;;5016054;28;20229;-72
2024/04/07 10:56:25;;;;;;;3.75;0.70;;;;;;;;;;5016940;28;20195;-66
2024/04/07 10:58:53;;;;;;;1.45;0.82;;;;;;;;;;5027310;28;20206;-73
2024/04/07 11:01:20;;;;;;;3.47;1.23;;;;;;;;;;5012770;28;20246;-74
2024/04/07 11:03:49;;;;;;;3.03;0.73;;;;;;;;;;5016794;28;20198;-73
2024/04/07 11:06:15;;;;;;;1.42;0.70;;;;;;;;;;5018935;28;20238;-71
2024/04/07 11:08:42;;;;;;;0.93;0.57;;;;;;;;;;5024736;28;20195;-71
2024/04/07 11:11:09;;;;;;;0.52;0.40;;;;;;;;;;5019390;28;20218;-68
2024/04/07 11:13:36;;;;;;;2.05;0.68;;;;;;;;;;5017678;28;20206;-69
2024/04/07 11:16:03;;;;;;;2.35;0.65;;;;;;;;;;5015520;28;20281;-68
2024/04/07 11:18:32;;;;;;;0.70;0.70;;;;;;;;;;5021038;28;20277;-70
2024/04/07 11:20:59;;;;;;;1.67;1.13;;;;;;;;;;5024219;28;20670;-68
2024/04/07 11:23:27;;;;;;;1.33;0.85;;;;;;;;;;5021737;28;20214;-68
2024/04/07 11:25:55;;;;;;;0.70;0.65;;;;;;;;;;5023553;28;20229;-66
2024/04/07 11:28:23;;;;;;;0.75;0.75;;;;;;;;;;5019440;28;20233;-73
2024/04/07 11:30:49;;;;;;;4.20;0.60;;;;;;;;;;5021586;28;20253;-73
2024/04/07 11:33:17;;;;;;;3.97;3.10;;;;;;;;;;5022083;28;20293;-72
2024/04/07 11:35:44;;;;;;;4.60;3.95;;;;;;;;;;5018276;28;20222;-71
2024/04/07 11:38:13;;;;;;;14.85;9.25;;;;;;;;;;5017569;28;20256;-70
2024/04/07 11:40:39;;;;;;;3.47;2.55;;;;;;;;;;5018245;28;20204;-70
2024/04/07 11:43:06;;;;;;;6.35;1.63;;;;;;;;;;5021349;28;20583;-64
2024/04/07 11:45:33;;;;;;;4.82;1.48;;;;;;;;;;5020913;28;20722;-64
2024/04/07 11:48:00;;;;;;;3.67;1.10;;;;;;;;;;5025486;28;20202;-64
2024/04/07 11:50:26;;;;;;;5.10;1.13;;;;;;;;;;5030341;28;20643;-64
2024/04/07 11:52:54;;;;;;;0.85;0.70;;;;;;;;;;5026751;28;20206;-64
2024/04/07 11:55:21;;;;;;;4.60;1.10;;;;;;;;;;5023459;28;20226;-64
2024/04/07 11:57:49;;;;;;;7.07;1.10;;;;;;;;;;5014793;28;20214;-65
2024/04/07 12:00:15;;;;;;;3.92;1.02;;;;;;;;;;5028285;28;20226;-65
2024/04/07 12:02:42;;;;;;;6.88;1.48;;;;;;;;;;5021070;28;20284;-64
2024/04/07 12:05:09;;;;;;;3.80;1.20;;;;;;;;;;5025806;28;20250;-64
2024/04/07 12:07:36;;;;;;;3.65;1.02;;;;;;;;;;5026870;28;20222;-64
2024/04/07 12:10:03;;;;;;;7.85;1.65;;;;;;;;;;5028954;28;20666;-69
2024/04/07 12:12:31;;;;;;;7.60;1.67;;;;;;;;;;5023489;28;20233;-67
2024/04/07 12:14:59;;;;;;;3.70;1.13;;;;;;;;;;5018776;28;20768;-64
2024/04/07 12:17:27;;;;;;;4.07;1.95;;;;;;;;;;5022515;28;20621;-64
2024/04/07 12:19:53;;;;;;;2.87;1.10;;;;;;;;;;5025023;28;20204;-64
2024/04/07 12:22:22;;;;;;;3.50;1.00;;;;;;;;;;5027233;28;20206;-64
2024/04/07 12:24:48;;;;;;;2.90;1.50;;;;;;;;;;5022493;28;20227;-64
2024/04/07 12:27:16;;;;;;;5.50;1.70;;;;;;;;;;5016575;28;20206;-63
2024/04/07 12:29:43;;;;;;;3.83;0.90;;;;;;;;;;5027456;28;20280;-64
2024/04/07 12:32:11;;;;;;;4.77;1.13;;;;;;;;;;5021137;28;20198;-64
2024/04/07 12:34:37;;;;;;;6.03;1.30;;;;;;;;;;5020227;28;20620;-64
2024/04/07 12:37:05;;;;;;;5.00;1.43;;;;;;;;;;5019838;28;20195;-64
2024/04/07 12:39:32;;;;;;;2.97;0.90;;;;;;;;;;5025801;28;20233;-63
2024/04/07 12:42:00;;;;;;;8.53;1.37;;;;;;;;;;5020073;28;20209;-64
2024/04/07 12:44:26;;;;;;;5.87;0.93;;;;;;;;;;5019290;28;20803;-64
2024/04/07 12:46:58;;;;;;;2.07;0.90;;;;;;;;;;5022042;28;20194;-64
2024/04/07 12:49:24;;;;;;;4.40;0.80;;;;;;;;;;5020799;28;20746;-64
2024/04/07 12:51:51;;;;;;;3.87;0.83;;;;;;;;;;5024188;28;20666;-64
2024/04/07 12:54:18;;;;;;;4.53;1.67;;;;;;;;;;5019207;28;20284;-63
2024/04/07 12:56:45;;;;;;;5.00;1.27;;;;;;;;;;5024697;28;20191;-64
2024/04/07 12:59:12;;;;;;;7.43;1.17;;;;;;;;;;5020995;28;21700;-64
2024/04/07 13:01:39;;;;;;;3.97;1.10;;;;;;;;;;5021163;28;20213;-65
2024/04/07 13:04:07;;;;;;;4.97;1.03;;;;;;;;;;5019467;28;20203;-64
2024/04/07 13:06:34;;;;;;;6.73;1.47;;;;;;;;;;5021191;28;20199;-64
2024/04/07 13:09:00;;;;;;;6.63;2.80;;;;;;;;;;5022169;28;20213;-64
2024/04/07 13:11:29;;;;;;;5.43;2.50;;;;;;;;;;5017257;28;20289;-64
2024/04/07 13:13:55;;;;;;;2.23;0.97;;;;;;;;;;5018020;28;20666;-64
2024/04/07 13:16:22;;;;;;;5.53;1.10;;;;;;;;;;5019617;28;20218;-64
2024/04/07 13:18:48;;;;;;;1.97;1.23;;;;;;;;;;5018078;28;20206;-64
2024/04/07 13:21:17;;;;;;;5.00;2.20;;;;;;;;;;5017640;28;20632;-64
2024/04/07 13:23:44;;;;;;;7.80;1.10;;;;;;;;;;5027880;28;20256;-64
2024/04/07 13:26:11;;;;;;;4.50;1.57;;;;;;;;;;5026765;28;20225;-64
2024/04/07 13:28:39;;;;;;;13.47;2.80;;;;;;;;;;5022537;28;20206;-64
2024/04/07 13:31:06;;;;;;;12.37;1.23;;;;;;;;;;5019612;28;20198;-64
2024/04/07 13:33:32;;;;;;;4.38;1.23;;;;;;;;;;5025278;28;20663;-64
2024/04/07 13:35:59;;;;;;;5.20;1.67;;;;;;;;;;5026052;28;20230;-64
2024/04/07 13:38:27;;;;;;;5.67;1.10;;;;;;;;;;5024204;28;20237;-63
2024/04/07 13:40:57;;;;;;;7.67;1.97;;;;;;;;;;5022325;28;20257;-63
2024/04/07 13:43:24;;;;;;;3.07;1.20;;;;;;;;;;5023197;28;20210;-63
2024/04/07 13:45:51;;;;;;;9.87;1.93;;;;;;;;;;5019679;28;20217;-63
2024/04/07 13:48:17;;;;;;;3.55;1.10;;;;;;;;;;5017441;28;20206;-63
2024/04/07 13:50:47;;;;;;;3.33;1.08;;;;;;;;;;5019940;28;20205;-64
2024/04/07 13:53:13;;;;;;;6.05;1.30;;;;;;;;;;5016876;28;20733;-64
2024/04/07 13:55:42;;;;;;;2.60;1.58;;;;;;;;;;5023542;28;20230;-63
2024/04/07 13:58:08;;;;;;;4.37;1.57;;;;;;;;;;5016615;28;20207;-64
2024/04/07 14:00:35;;;;;;;2.50;1.00;;;;;;;;;;5020278;28;20213;-64
2024/04/07 14:03:01;;;;;;;3.47;1.47;;;;;;;;;;5018410;28;20195;-64
2024/04/07 14:05:29;;;;;;;9.73;4.60;;;;;;;;;;5030433;28;20210;-63
2024/04/07 14:07:55;;;;;;;2.93;0.90;;;;;;;;;;5027683;28;20194;-64
2024/04/07 14:10:22;;;;;;;4.53;1.10;;;;;;;;;;5022871;28;20741;-64
2024/04/07 14:12:50;;;;;;;3.00;0.98;;;;;;;;;;5022916;28;20632;-64
2024/04/07 14:15:17;;;;;;;3.23;1.00;;;;;;;;;;5022294;28;20269;-64
2024/04/07 14:17:44;;;;;;;5.07;1.10;;;;;;;;;;5017368;28;20198;-64
2024/04/07 14:20:11;;;;;;;6.40;1.17;;;;;;;;;;5019121;28;20199;-64
2024/04/07 14:22:38;;;;;;;11.32;1.75;;;;;;;;;;5017943;28;20254;-63
2024/04/07 14:25:07;;;;;;;3.92;1.73;;;;;;;;;;5017514;28;20272;-64
2024/04/07 14:27:33;;;;;;;6.07;1.80;;;;;;;;;;5017725;28;20256;-64
2024/04/07 14:30:02;;;;;;;4.60;1.45;;;;;;;;;;5021712;28;20474;-64
2024/04/07 14:32:28;;;;;;;4.55;1.70;;;;;;;;;;5015264;28;20199;-64